TimeAKDT,TemperatureF,Dew PointF,Humidity,Sea Level PressureIn,VisibilityMPH,Wind Direction,Wind SpeedMPH,Gust SpeedMPH,PrecipitationIn,Events,Conditions,WindDirDegrees,DateUTC
12:53 AM,41.0,37.0,86,30.02,10.0,Calm,Calm,-,N/A,,Clear,0,2013-05-25 08:53:00
1:53 AM,39.0,35.1,86,30.02,10.0,Calm,Calm,-,N/A,,Clear,0,2013-05-25 09:53:00
2:53 AM,39.0,36.0,89,30.01,10.0,Calm,Calm,-,N/A,,Clear,0,2013-05-25 10:53:00
3:53 AM,37.9,35.1,89,30.00,10.0,Calm,Calm,-,N/A,,Clear,0,2013-05-25 11:53:00
4:53 AM,43.0,36.0,76,30.00,10.0,Calm,Calm,-,N/A,,Clear,0,2013-05-25 12:53:00
5:53 AM,45.0,36.0,71,29.99,10.0,Calm,Calm,-,N/A,,Clear,0,2013-05-25 13:53:00
6:53 AM,41.0,35.1,79,29.99,10.0,Calm,Calm,-,N/A,,Clear,0,2013-05-25 14:53:00
7:53 AM,48.0,37.9,68,29.99,10.0,South,4.6,-,N/A,,Clear,170,2013-05-25 15:53:00
8:53 AM,53.1,37.0,55,29.99,10.0,Variable,3.5,-,N/A,,Clear,0,2013-05-25 16:53:00
9:53 AM,52.0,37.9,59,29.99,10.0,NNE,4.6,-,N/A,,Clear,30,2013-05-25 17:53:00
10:53 AM,53.1,39.0,59,29.98,10.0,Variable,4.6,-,N/A,,Clear,0,2013-05-25 18:53:00
11:53 AM,53.1,42.1,66,29.97,10.0,NE,4.6,-,N/A,,Clear,40,2013-05-25 19:53:00
12:53 PM,50.0,41.0,71,29.98,10.0,North,5.8,-,N/A,,Clear,360,2013-05-25 20:53:00
1:53 PM,48.9,41.0,74,29.98,10.0,North,6.9,-,N/A,,Clear,10,2013-05-25 21:53:00
2:53 PM,51.1,41.0,68,29.97,10.0,NNE,3.5,-,N/A,,Clear,20,2013-05-25 22:53:00
3:53 PM,51.1,39.9,66,29.97,10.0,NNE,4.6,-,N/A,,Clear,20,2013-05-25 23:53:00
4:53 PM,52.0,39.0,61,29.96,10.0,North,6.9,-,N/A,,Clear,10,2013-05-26 00:53:00
5:53 PM,55.9,39.0,53,29.94,10.0,South,8.1,-,N/A,,Clear,190,2013-05-26 01:53:00
6:53 PM,54.0,37.9,55,29.93,10.0,South,8.1,-,N/A,,Clear,180,2013-05-26 02:53:00
7:53 PM,53.1,37.9,57,29.92,10.0,South,9.2,-,N/A,,Clear,180,2013-05-26 03:53:00
8:53 PM,50.0,37.9,63,29.93,10.0,South,8.1,-,N/A,,Clear,190,2013-05-26 04:53:00
9:53 PM,48.0,37.9,68,29.93,10.0,Variable,5.8,-,N/A,,Clear,0,2013-05-26 05:53:00
10:53 PM,43.0,37.9,82,29.94,10.0,Calm,Calm,-,N/A,,Clear,0,2013-05-26 06:53:00
11:53 PM,41.0,37.0,86,29.94,10.0,Calm,Calm,-,N/A,,Clear,0,2013-05-26 07:53:00